Map

Track Data

SID SEASON NUMBER BASIN SUBBASIN NAME ISO_TIME NATURE LAT LON WMO_WIND WMO_PRES WMO_AGENCY TRACK_TYPE DIST2LAND LANDFALL IFLAG USA_AGENCY USA_ATCF_ID USA_LAT USA_LON USA_RECORD USA_STATUS USA_WIND USA_PRES USA_SSHS USA_R34_NE USA_R34_SE USA_R34_SW USA_R34_NW USA_R50_NE USA_R50_SE USA_R50_SW USA_R50_NW USA_R64_NE USA_R64_SE USA_R64_SW USA_R64_NW USA_POCI USA_ROCI USA_RMW USA_EYE TOKYO_LAT TOKYO_LON TOKYO_GRADE TOKYO_WIND TOKYO_PRES TOKYO_R50_DIR TOKYO_R50_LONG TOKYO_R50_SHORT TOKYO_R30_DIR TOKYO_R30_LONG TOKYO_R30_SHORT TOKYO_LAND CMA_LAT CMA_LON CMA_CAT CMA_WIND CMA_PRES HKO_LAT HKO_LON HKO_CAT HKO_WIND HKO_PRES NEWDELHI_LAT NEWDELHI_LON NEWDELHI_GRADE NEWDELHI_WIND NEWDELHI_PRES NEWDELHI_CI NEWDELHI_DP NEWDELHI_POCI REUNION_LAT REUNION_LON REUNION_TYPE REUNION_WIND REUNION_PRES REUNION_TNUM REUNION_CI REUNION_RMW REUNION_R34_NE REUNION_R34_SE REUNION_R34_SW REUNION_R34_NW REUNION_R50_NE REUNION_R50_SE REUNION_R50_SW REUNION_R50_NW REUNION_R64_NE REUNION_R64_SE REUNION_R64_SW REUNION_R64_NW BOM_LAT BOM_LON BOM_TYPE BOM_WIND BOM_PRES BOM_TNUM BOM_CI BOM_RMW BOM_R34_NE BOM_R34_SE BOM_R34_SW BOM_R34_NW BOM_R50_NE BOM_R50_SE BOM_R50_SW BOM_R50_NW BOM_R64_NE BOM_R64_SE BOM_R64_SW BOM_R64_NW BOM_ROCI BOM_POCI BOM_EYE BOM_POS_METHOD BOM_PRES_METHOD NADI_LAT NADI_LON NADI_CAT NADI_WIND NADI_PRES WELLINGTON_LAT WELLINGTON_LON WELLINGTON_WIND WELLINGTON_PRES DS824_LAT DS824_LON DS824_STAGE DS824_WIND DS824_PRES TD9636_LAT TD9636_LON TD9636_STAGE TD9636_WIND TD9636_PRES TD9635_LAT TD9635_LON TD9635_WIND TD9635_PRES TD9635_ROCI NEUMANN_LAT NEUMANN_LON NEUMANN_CLASS NEUMANN_WIND NEUMANN_PRES MLC_LAT MLC_LON MLC_CLASS MLC_WIND MLC_PRES USA_GUST BOM_GUST BOM_GUST_PER REUNION_GUST REUNION_GUST_PER USA_SEAHGT USA_SEARAD_NE USA_SEARAD_SE USA_SEARAD_SW USA_SEARAD_NW STORM_SPEED STORM_DIR
2017340N09089 2017 104 NI BB NOT_NAMED 2017-12-06 03:00:00 NR 8.50000 88.5000 25 1004 newdelhi main 745 726 ____O_________ -1 8.50000 88.5000 D 25 1004 1.50000 4 7 327
2017340N09089 2017 104 NI BB NOT_NAMED 2017-12-06 06:00:00 NR 8.80000 88.3000 25 1004 newdelhi main 728 716 ____O_________ -1 8.80000 88.3000 D 25 1004 1.50000 4 9 335
2017340N09089 2017 104 NI BB NOT_NAMED 2017-12-06 09:00:00 NR 9.31364 88.1194 main 719 718 ____P_________ -1 9.31364 88.1194 D 25 1004 4 11 343
2017340N09089 2017 104 NI BB NOT_NAMED 2017-12-06 12:00:00 NR 9.80000 88.0000 25 1004 newdelhi main 725 725 ____O_________ -1 9.80000 88.0000 D 25 1004 1.50000 4 6 346
2017340N09089 2017 104 NI BB NOT_NAMED 2017-12-06 15:00:00 NR 9.89249 87.9774 main 728 728 ____P_________ -1 9.89249 87.9774 D 25 1004 4 2 8
2017340N09089 2017 104 NI BB NOT_NAMED 2017-12-06 18:00:00 NR 10.0000 88.0000 25 1004 newdelhi main 732 732 ____O_________ -1 10.0000 88.0000 D 25 1004 1.50000 4 5 2
2017340N09089 2017 104 NI BB NOT_NAMED 2017-12-06 21:00:00 NR 10.4171 88.0000 main 750 750 ____P_________ -1 10.4171 88.0000 D 25 1004 4 11 0
2017340N09089 2017 104 NI BB NOT_NAMED 2017-12-07 00:00:00 NR 11.1000 88.0000 25 1004 newdelhi main 783 783 ____O_________ -1 11.1000 88.0000 D 25 1004 1.50000 4 16 1
2017340N09089 2017 104 NI BB NOT_NAMED 2017-12-07 03:00:00 NR 12.0000 88.0000 25 1004 newdelhi main 801 778 ____O_________ -1 12.0000 88.0000 D 25 1004 1.50000 4 11 355
2017340N09089 2017 104 NI BB NOT_NAMED 2017-12-07 06:00:00 NR 12.2000 87.9000 25 1004 newdelhi main 778 749 ____O_________ -1 12.2000 87.9000 D 25 1004 1.50000 4 5 337
2017340N09089 2017 104 NI BB NOT_NAMED 2017-12-07 09:00:00 NR 12.4796 87.7932 main 749 720 ____P_________ -1 12.4796 87.7932 D 25 1004 4 6 342
2017340N09089 2017 104 NI BB NOT_NAMED 2017-12-07 12:00:00 NR 12.8000 87.7000 25 1004 newdelhi main 720 697 ____O_________ -1 12.8000 87.7000 D 25 1004 1.50000 4 6 350
2017340N09089 2017 104 NI BB NOT_NAMED 2017-12-07 15:00:00 NR 13.0774 87.6797 main 697 664 ____P_________ -1 13.0774 87.6797 D 25 1004 4 6 351
2017340N09089 2017 104 NI BB NOT_NAMED 2017-12-07 18:00:00 NR 13.4000 87.6000 25 1004 newdelhi main 664 608 ____O_________ -1 13.4000 87.6000 D 25 1004 1.50000 4 8 333
2017340N09089 2017 104 NI BB NOT_NAMED 2017-12-07 21:00:00 NR 13.7785 87.3137 main 608 544 ____P_________ -1 13.7785 87.3137 D 27 1003 5 11 327
2017340N09089 2017 104 NI BB NOT_NAMED 2017-12-08 00:00:00 NR 14.3000 87.0000 30 1002 newdelhi main 544 468 ____O_________ -1 14.3000 87.0000 DD 30 1002 2.00000 6 13 338
2017340N09089 2017 104 NI BB NOT_NAMED 2017-12-08 03:00:00 NR 15.0000 86.8000 30 1002 newdelhi main 468 385 ____O_________ -1 15.0000 86.8000 DD 30 1002 2.00000 6 16 347
2017340N09089 2017 104 NI BB NOT_NAMED 2017-12-08 06:00:00 TS 15.8400 86.6200 30 1002 newdelhi main 385 331 O___O_________ jtwc_io IO042017 17.2000 86.3000 TS 40 993 0 1008 200 120 15.5000 86.7000 DD 30 1002 2.00000 6 15 347
2017340N09089 2017 104 NI BB NOT_NAMED 2017-12-08 09:00:00 TS 16.4632 86.4501 main 323 269 P___P_________ IO042017 17.4575 86.3500 TS 42 991 0 1008 200 120 15.9660 86.5001 DD 30 1002 6 12 347
2017340N09089 2017 104 NI BB NOT_NAMED 2017-12-08 12:00:00 TS 17.0143 86.3429 30 1002 newdelhi main 269 224 O___O_________ jtwc_io IO042017 17.7000 86.4000 TS 45 989 0 115 110 85 1008 200 120 16.5000 86.3000 DD 30 1002 2.00000 6 11 354
2017340N09089 2017 104 NI BB NOT_NAMED 2017-12-08 15:00:00 TS 17.5825 86.3312 main 224 200 P___P_________ IO042017 17.9150 86.4500 TS 42 994 0 67 65 75 1009 200 82 17.2500 86.2125 DD 27 1003 5 10 0
2017340N09089 2017 104 NI BB NOT_NAMED 2017-12-08 18:00:00 TS 18.0500 86.3500 25 1004 newdelhi main 198 168 O___O_________ jtwc_io IO042017 18.1000 86.5000 TS 40 999 0 20 20 50 65 1010 200 45 18.0000 86.2000 D 25 1004 1.50000 4 8 3
2017340N09089 2017 104 NI BB NOT_NAMED 2017-12-08 21:00:00 TS 18.4189 86.3704 main 168 148 P___P_________ IO042017 18.2425 86.5351 TS 37 997 0 22 22 37 52 1009 192 42 18.5954 86.2057 D 25 1004 4 6 10
2017340N09089 2017 104 NI BB NOT_NAMED 2017-12-09 00:00:00 TS 18.6571 86.4714 25 1004 newdelhi main 140 133 O___O_________ jtwc_io IO042017 18.4000 86.6000 TS 35 996 0 25 25 25 40 1009 185 40 19.0000 86.3000 D 25 1004 1.50000 4 5 33
2017340N09089 2017 104 NI BB NOT_NAMED 2017-12-09 03:00:00 TS 18.8283 86.6516 25 1004 newdelhi main 137 119 P___O_________ IO042017 18.6425 86.7275 TS 32 998 -1 1009 180 42 19.2000 86.5000 D 25 1004 1.50000 4 5 45
2017340N09089 2017 104 NI BB NOT_NAMED 2017-12-09 06:00:00 TS 19.0200 86.8600 25 1004 newdelhi main 123 118 O___O_________ jtwc_io IO042017 18.9000 86.9000 TD 30 1000 -1 1010 175 45 19.5000 86.7000 D 25 1004 1.50000 4 5 57
2017340N09089 2017 104 NI BB NOT_NAMED 2017-12-09 09:00:00 TS 19.1000 87.1000 main 124 122 P_____________ IO042017 19.1000 87.1000 TD 30 1000 -1 1010 175 45 5 56
2017340N09089 2017 104 NI BB NOT_NAMED 2017-12-09 12:00:00 TS 19.3000 87.3000 main 122 115 O_____________ jtwc_io IO042017 19.3000 87.3000 TD 30 1000 -1 1010 175 45 5 37
2017340N09089 2017 104 NI BB NOT_NAMED 2017-12-09 15:00:00 TS 19.5349 87.4427 main 115 107 P_____________ IO042017 19.5349 87.4427 TD 27 1004 -1 1010 175 45 6 30
2017340N09089 2017 104 NI BB NOT_NAMED 2017-12-09 18:00:00 TS 19.8000 87.6000 main 109 104 O_____________ jtwc_io IO042017 19.8000 87.6000 TD 25 1009 -1 1011 175 45 7 33
2017340N09089 2017 104 NI BB NOT_NAMED 2017-12-09 21:00:00 TS 20.0850 87.8276 main 107 107 P_____________ IO042017 20.0850 87.8276 TD 25 1009 -1 1011 175 45 8 38
2017340N09089 2017 104 NI BB NOT_NAMED 2017-12-10 00:00:00 TS 20.4000 88.1000 main 119 100 O_____________ jtwc_io IO042017 20.4000 88.1000 TD 25 1009 -1 1011 175 45 8 39
2017340N09089 2017 104 NI BB NOT_NAMED 2017-12-10 03:00:00 TS 20.7426 88.3947 main 100 59 P_____________ IO042017 20.7426 88.3947 TD 22 1008 -1 1011 175 45 9 39
2017340N09089 2017 104 NI BB NOT_NAMED 2017-12-10 06:00:00 TS 21.1000 88.7000 main 59 O_____________ jtwc_io IO042017 21.1000 88.7000 TD 20 1007 -1 1011 175 45 9 39

About IBTrACS Database

This database is a web-friendly format of International Best Track Archive for Climate Stewardship (IBTrACS), a global best track data archive curated by NOAA dating back to 1842.

Updated: 2021-10-21